createdAt,value
2022-09-02T00:01:31.904Z,83.50
2022-09-02T00:04:29.805Z,83.80
2022-09-02T00:06:56.806Z,83.70
2022-09-02T00:09:25.838Z,84.10
2022-09-02T00:11:54.513Z,84.10
2022-09-02T00:14:28.536Z,84.00
2022-09-02T00:16:56.325Z,84.10
2022-09-02T00:19:25.779Z,84.30
2022-09-02T00:21:55.123Z,84.20
2022-09-02T00:24:23.853Z,84.60
2022-09-02T00:26:51.561Z,84.10
2022-09-02T00:29:24.293Z,84.30
2022-09-02T00:31:51.323Z,84.10
2022-09-02T00:34:18.491Z,84.30
2022-09-02T00:36:45.667Z,84.70
2022-09-02T00:39:12.749Z,84.80
2022-09-02T00:41:42.028Z,85.20
2022-09-02T00:44:13.366Z,85.60
2022-09-02T00:46:40.907Z,85.60
2022-09-02T00:49:40.433Z,85.40
2022-09-02T00:52:19.960Z,86.00
2022-09-02T00:54:51.021Z,85.40
2022-09-02T00:57:22.257Z,85.60
2022-09-02T01:00:17.574Z,85.20
2022-09-02T01:03:06.909Z,85.40
2022-09-02T01:05:40.681Z,85.90
2022-09-02T01:08:25.274Z,85.60
2022-09-02T01:10:55.689Z,85.40
2022-09-02T01:13:26.122Z,85.40
2022-09-02T01:16:13.453Z,84.90
2022-09-02T01:18:50.046Z,85.70
2022-09-02T01:21:17.922Z,85.70
2022-09-02T01:23:47.788Z,85.40
2022-09-02T01:26:14.819Z,85.30
2022-09-02T01:28:42.024Z,84.70
2022-09-02T01:31:09.878Z,85.30
2022-09-02T01:33:37.057Z,84.70
2022-09-02T01:36:05.236Z,84.80
2022-09-02T01:38:32.788Z,84.70
2022-09-02T01:41:00.037Z,84.60
2022-09-02T01:43:28.356Z,84.60
2022-09-02T01:45:58.265Z,84.50
2022-09-02T01:48:25.603Z,85.10
2022-09-02T01:51:01.429Z,84.90
2022-09-02T01:53:29.825Z,85.20
2022-09-02T01:55:57.237Z,85.10
2022-09-02T01:58:24.566Z,85.30
2022-09-02T02:00:52.852Z,86.10
2022-09-02T02:03:20.545Z,85.20
2022-09-02T02:05:48.147Z,85.20
2022-09-02T02:08:15.490Z,85.00
2022-09-02T02:10:44.079Z,85.00
2022-09-02T02:13:11.614Z,85.00
2022-09-02T02:15:40.469Z,86.50
2022-09-02T02:18:08.030Z,87.70
2022-09-02T02:20:35.718Z,87.60
2022-09-02T02:23:03.180Z,87.90
2022-09-02T02:25:30.172Z,87.90
2022-09-02T02:27:57.410Z,88.30
2022-09-02T02:30:24.607Z,88.30
2022-09-02T02:32:51.608Z,88.10
2022-09-02T02:35:20.333Z,88.40
2022-09-02T02:37:49.466Z,88.70
2022-09-02T02:40:22.793Z,88.70
2022-09-02T02:42:53.463Z,89.10
2022-09-02T02:45:21.082Z,88.70
2022-09-02T02:47:48.232Z,88.90
2022-09-02T02:50:18.719Z,88.80
2022-09-02T02:52:46.289Z,89.50
2022-09-02T02:55:14.740Z,89.50
2022-09-02T02:57:43.107Z,88.60
2022-09-02T03:00:23.570Z,88.80
2022-09-02T03:02:50.720Z,88.30
2022-09-02T03:05:18.831Z,88.30
2022-09-02T03:07:45.985Z,88.20
2022-09-02T03:10:14.159Z,88.30
2022-09-02T03:12:41.770Z,88.50
2022-09-02T03:15:09.890Z,88.30
2022-09-02T03:17:38.576Z,88.70
2022-09-02T03:20:07.008Z,89.00
2022-09-02T03:22:35.990Z,88.90
2022-09-02T03:25:02.976Z,88.70
2022-09-02T03:27:29.932Z,89.40
2022-09-02T03:29:57.150Z,89.30
2022-09-02T03:32:26.283Z,89.90
2022-09-02T03:34:57.545Z,90.00
2022-09-02T03:37:24.710Z,90.10
2022-09-02T03:39:51.711Z,90.10
2022-09-02T03:42:19.692Z,90.10
2022-09-02T03:44:47.540Z,90.10
2022-09-02T03:47:15.372Z,90.00
2022-09-02T03:49:43.783Z,90.20
2022-09-02T03:52:11.266Z,90.50
2022-09-02T03:54:38.357Z,90.50
2022-09-02T03:57:06.392Z,90.60
2022-09-02T03:59:33.430Z,90.80
2022-09-02T04:02:03.420Z,90.90
2022-09-02T04:04:31.159Z,91.10
2022-09-02T04:06:58.763Z,91.20
2022-09-02T04:09:25.823Z,91.10
2022-09-02T04:11:52.990Z,91.30
2022-09-02T04:14:20.161Z,91.40
2022-09-02T04:16:47.663Z,91.50
2022-09-02T04:19:14.727Z,91.50
2022-09-02T04:21:42.049Z,91.50
2022-09-02T04:24:10.925Z,91.40
2022-09-02T04:26:44.835Z,91.70
2022-09-02T04:29:12.867Z,91.80
2022-09-02T04:31:39.909Z,92.10
2022-09-02T04:34:07.670Z,91.70
2022-09-02T04:36:34.945Z,91.70
2022-09-02T04:39:02.011Z,91.60
2022-09-02T04:41:30.805Z,91.50
2022-09-02T04:43:59.624Z,91.40
2022-09-02T04:46:29.786Z,91.40
2022-09-02T04:49:02.687Z,91.70
2022-09-02T04:51:30.216Z,91.80
2022-09-02T04:53:57.650Z,91.70
2022-09-02T04:56:27.585Z,92.00
2022-09-02T04:58:55.676Z,92.30
2022-09-02T05:01:25.752Z,92.40
2022-09-02T05:03:54.224Z,92.70
2022-09-02T05:06:27.240Z,92.90
2022-09-02T05:08:56.507Z,92.90
2022-09-02T05:11:28.676Z,93.00
2022-09-02T05:13:58.594Z,93.10
2022-09-02T05:16:32.915Z,93.20
2022-09-02T05:19:00.419Z,93.30
2022-09-02T05:21:27.609Z,93.30
2022-09-02T05:23:54.817Z,93.20
2022-09-02T05:26:22.891Z,93.30
2022-09-02T05:28:51.319Z,93.40
2022-09-02T05:31:20.674Z,93.50
2022-09-02T05:33:48.637Z,93.60
2022-09-02T05:36:19.308Z,93.50
2022-09-02T05:38:47.453Z,93.60
2022-09-02T05:41:18.393Z,93.60
2022-09-02T05:43:46.268Z,93.70
2022-09-02T05:46:17.938Z,93.80
2022-09-02T05:49:04.957Z,93.90
2022-09-02T05:51:45.075Z,93.90
2022-09-02T05:54:15.958Z,93.80
2022-09-02T05:56:44.983Z,93.90
2022-09-02T05:59:12.646Z,93.90
2022-09-02T06:01:40.654Z,93.90
2022-09-02T06:04:08.596Z,93.90
2022-09-02T06:06:38.865Z,94.30
2022-09-02T06:09:08.688Z,94.10
2022-09-02T06:11:40.189Z,94.10
2022-09-02T06:14:08.609Z,94.20
2022-09-02T06:16:36.406Z,94.40
2022-09-02T06:19:06.481Z,94.40
2022-09-02T06:21:33.842Z,94.50
2022-09-02T06:24:01.051Z,94.40
2022-09-02T06:26:28.137Z,94.50
2022-09-02T06:28:55.219Z,94.60
2022-09-02T06:31:23.253Z,94.50
2022-09-02T06:33:54.453Z,94.60
2022-09-02T06:36:23.527Z,94.60
2022-09-02T06:38:57.329Z,94.60
2022-09-02T06:41:28.543Z,94.60
2022-09-02T06:43:57.869Z,94.70
2022-09-02T06:46:28.279Z,94.80
2022-09-02T06:48:55.582Z,94.70
2022-09-02T06:51:25.850Z,94.50
2022-09-02T06:53:53.098Z,94.30
2022-09-02T06:56:20.617Z,94.00
2022-09-02T06:58:47.702Z,94.10
2022-09-02T07:01:24.110Z,93.80
2022-09-02T07:04:11.084Z,93.70
2022-09-02T07:06:40.694Z,93.30
2022-09-02T07:09:10.469Z,93.40
2022-09-02T07:11:38.176Z,93.00
2022-09-02T07:14:05.966Z,93.10
2022-09-02T07:16:37.094Z,93.00
2022-09-02T07:19:07.452Z,92.80
2022-09-02T07:21:40.892Z,93.00
2022-09-02T07:24:09.921Z,92.50
2022-09-02T07:26:37.574Z,92.30
2022-09-02T07:29:09.005Z,92.00
2022-09-02T07:31:42.197Z,92.00
2022-09-02T07:34:10.169Z,91.70
2022-09-02T07:36:38.011Z,91.80
2022-09-02T07:39:08.568Z,91.80
2022-09-02T07:41:37.132Z,91.60
2022-09-02T07:44:05.751Z,91.20
2022-09-02T07:46:33.784Z,91.20
2022-09-02T07:49:04.383Z,91.00
2022-09-02T07:51:33.428Z,90.80
2022-09-02T07:54:03.228Z,90.90
2022-09-02T07:56:30.621Z,90.50
2022-09-02T07:58:58.166Z,90.30
2022-09-02T08:01:25.796Z,90.50
2022-09-02T08:03:53.740Z,90.20
2022-09-02T08:06:21.916Z,90.30
2022-09-02T08:09:01.434Z,90.20
2022-09-02T08:11:29.167Z,90.00
2022-09-02T08:13:56.559Z,89.60
2022-09-02T08:16:24.737Z,89.90
2022-09-02T08:18:52.046Z,89.20
2022-09-02T08:21:19.175Z,88.90
2022-09-02T08:23:51.656Z,88.00
2022-09-02T08:26:19.126Z,87.70
2022-09-02T08:28:46.199Z,88.00
2022-09-02T08:31:13.243Z,87.90
2022-09-02T08:33:40.337Z,87.20
2022-09-02T08:36:12.093Z,86.60
2022-09-02T08:38:39.339Z,86.50
2022-09-02T08:41:24.883Z,85.30
2022-09-02T08:43:55.551Z,84.50
2022-09-02T08:46:26.609Z,84.00
2022-09-02T08:49:00.331Z,84.10
2022-09-02T08:51:52.884Z,82.90
2022-09-02T08:54:28.473Z,82.30
2022-09-02T08:56:56.595Z,82.50
2022-09-02T08:59:26.733Z,82.50
2022-09-02T09:02:04.159Z,82.70
2022-09-02T09:04:57.002Z,82.10
2022-09-02T09:07:40.858Z,81.30
2022-09-02T09:10:31.148Z,81.30
2022-09-02T09:13:41.436Z,81.30
2022-09-02T09:16:11.893Z,80.90
2022-09-02T09:19:03.031Z,81.30
2022-09-02T09:21:33.455Z,80.80
2022-09-02T09:24:07.101Z,80.90
2022-09-02T09:26:38.457Z,80.50
2022-09-02T09:29:06.098Z,79.20
2022-09-02T09:31:35.754Z,79.00
2022-09-02T09:34:06.339Z,78.60
2022-09-02T09:36:43.972Z,78.10
2022-09-02T09:39:31.664Z,79.10
2022-09-02T09:42:04.294Z,77.80
2022-09-02T09:44:37.690Z,77.60
2022-09-02T09:47:22.841Z,77.50
2022-09-02T09:50:11.580Z,76.80
2022-09-02T09:52:39.055Z,76.70
2022-09-02T09:55:19.220Z,76.80
2022-09-02T09:57:53.713Z,75.80
2022-09-02T10:00:34.579Z,76.40
2022-09-02T10:03:05.357Z,75.00
2022-09-02T10:05:38.302Z,75.80
2022-09-02T10:08:27.665Z,74.80
2022-09-02T10:10:57.729Z,74.20
2022-09-02T10:13:31.004Z,73.80
2022-09-02T10:16:35.517Z,73.90
2022-09-02T10:19:05.346Z,74.70
2022-09-02T10:21:47.527Z,75.00
2022-09-02T10:24:23.164Z,74.10
2022-09-02T10:26:58.935Z,73.60
2022-09-02T10:29:41.766Z,74.40
2022-09-02T10:32:42.790Z,74.00
2022-09-02T10:35:31.732Z,73.20
2022-09-02T10:38:24.894Z,72.70
2022-09-02T10:41:00.688Z,73.10
2022-09-02T10:43:44.100Z,72.30
2022-09-02T10:46:18.514Z,71.70
2022-09-02T10:49:01.619Z,70.70
2022-09-02T10:51:37.542Z,70.80
2022-09-02T10:54:35.523Z,71.60
2022-09-02T10:57:11.539Z,69.60
2022-09-02T10:59:48.743Z,71.30
2022-09-02T11:02:32.202Z,69.90
2022-09-02T11:05:10.016Z,69.30
2022-09-02T11:07:44.283Z,67.60
2022-09-02T11:10:35.386Z,68.40
2022-09-02T11:13:12.216Z,68.10
2022-09-02T11:15:52.403Z,67.90
2022-09-02T11:18:23.230Z,66.90
2022-09-02T11:21:14.939Z,66.10
2022-09-02T11:23:55.500Z,64.80
2022-09-02T11:26:40.695Z,63.90
2022-09-02T11:29:16.783Z,62.10
2022-09-02T11:32:02.898Z,62.80
2022-09-02T11:34:38.490Z,63.10
2022-09-02T11:37:11.112Z,61.70
2022-09-02T11:40:11.187Z,61.40
2022-09-02T11:43:00.045Z,61.20
2022-09-02T11:45:45.932Z,59.60
2022-09-02T11:48:38.167Z,58.40
2022-09-02T11:51:30.982Z,59.20
2022-09-02T11:54:01.206Z,59.20
2022-09-02T11:56:36.300Z,59.60
2022-09-02T11:59:03.922Z,59.30
2022-09-02T12:01:53.476Z,59.00
2022-09-02T12:07:14.046Z,59.50
2022-09-02T12:09:55.270Z,58.40
2022-09-02T12:12:37.542Z,56.70
2022-09-02T12:15:07.836Z,56.80
2022-09-02T12:17:50.097Z,56.90
2022-09-02T12:20:39.028Z,56.30
2022-09-02T12:23:08.320Z,55.70
2022-09-02T12:25:49.782Z,56.70
2022-09-02T12:28:30.710Z,57.30
2022-09-02T12:31:08.914Z,55.80
2022-09-02T12:33:38.588Z,56.10
2022-09-02T12:36:07.653Z,55.80
2022-09-02T12:38:40.338Z,55.40
2022-09-02T12:41:12.231Z,55.80
2022-09-02T12:43:44.803Z,56.10
2022-09-02T12:46:45.325Z,55.20
2022-09-02T12:49:27.746Z,54.80
2022-09-02T12:51:58.159Z,54.50
2022-09-02T12:54:39.183Z,55.00
2022-09-02T12:57:07.984Z,55.30
2022-09-02T12:59:38.332Z,55.10
2022-09-02T13:02:29.739Z,55.10
2022-09-02T13:05:16.237Z,53.70
2022-09-02T13:08:02.555Z,51.90
2022-09-02T13:11:10.746Z,53.70
2022-09-02T13:14:03.442Z,53.70
2022-09-02T13:16:42.440Z,53.10
2022-09-02T13:19:36.817Z,51.90
2022-09-02T13:22:37.378Z,52.40
2022-09-02T13:25:32.734Z,52.60
2022-09-02T13:28:17.859Z,53.10
2022-09-02T13:30:53.757Z,53.20
2022-09-02T13:33:21.402Z,53.10
2022-09-02T13:35:54.876Z,52.30
2022-09-02T13:38:25.511Z,52.60
2022-09-02T13:40:52.959Z,52.90
2022-09-02T13:43:24.173Z,51.90
2022-09-02T13:45:52.676Z,52.00
2022-09-02T13:48:28.914Z,51.80
2022-09-02T13:50:58.481Z,51.70
2022-09-02T13:53:58.810Z,52.00
2022-09-02T13:56:31.025Z,51.80
2022-09-02T13:58:58.199Z,52.40
2022-09-02T14:01:36.017Z,52.20
2022-09-02T14:04:09.936Z,52.00
2022-09-02T14:06:42.261Z,51.70
2022-09-02T14:09:20.583Z,52.70
2022-09-02T14:11:48.660Z,52.30
2022-09-02T14:14:23.649Z,51.70
2022-09-02T14:16:50.717Z,51.60
2022-09-02T14:19:17.679Z,51.10
2022-09-02T14:21:50.669Z,51.00
2022-09-02T14:24:22.896Z,50.50
2022-09-02T14:26:53.264Z,49.60
2022-09-02T14:29:21.809Z,50.10
2022-09-02T14:32:15.519Z,50.60
2022-09-02T14:34:47.533Z,50.20
2022-09-02T14:37:26.977Z,49.30
2022-09-02T14:40:11.968Z,49.70
2022-09-02T14:42:57.555Z,50.30
2022-09-02T14:45:33.521Z,49.00
2022-09-02T14:48:15.418Z,48.90
2022-09-02T14:50:42.557Z,48.30
2022-09-02T14:53:11.447Z,49.10
2022-09-02T14:55:50.168Z,49.10
2022-09-02T14:58:18.200Z,47.90
2022-09-02T15:00:47.827Z,49.10
2022-09-02T15:03:16.639Z,48.50
2022-09-02T15:05:44.459Z,48.70
2022-09-02T15:08:12.023Z,48.20
2022-09-02T15:10:40.629Z,47.90
2022-09-02T15:13:12.277Z,48.20
2022-09-02T15:15:40.553Z,48.60
2022-09-02T15:18:09.155Z,48.00
2022-09-02T15:20:36.495Z,47.50
2022-09-02T15:23:03.864Z,47.50
2022-09-02T15:25:31.173Z,48.40
2022-09-02T15:27:58.224Z,48.60
2022-09-02T15:30:25.452Z,48.60
2022-09-02T15:32:52.584Z,47.70
2022-09-02T15:35:19.596Z,47.40
2022-09-02T15:37:50.456Z,47.70
2022-09-02T15:40:17.534Z,47.90
2022-09-02T15:42:44.489Z,48.30
2022-09-02T15:45:11.959Z,47.60
2022-09-02T15:47:39.464Z,47.70
2022-09-02T15:50:06.855Z,47.90
2022-09-02T15:52:35.277Z,47.40
2022-09-02T15:55:02.457Z,48.40
2022-09-02T15:57:31.061Z,48.40
2022-09-02T15:59:58.205Z,48.40
2022-09-02T16:02:25.237Z,47.60
2022-09-02T16:04:52.324Z,48.40
2022-09-02T16:07:19.484Z,48.20
2022-09-02T16:09:46.498Z,48.40
2022-09-02T16:12:13.507Z,48.30
2022-09-02T16:14:40.613Z,47.70
2022-09-02T16:17:09.142Z,47.90
2022-09-02T16:19:36.269Z,48.00
2022-09-02T16:22:03.432Z,47.50
2022-09-02T16:24:30.683Z,47.60
2022-09-02T16:26:57.885Z,47.50
2022-09-02T16:29:28.186Z,47.70
2022-09-02T16:32:23.729Z,47.80
2022-09-02T16:34:43.002Z,47.60
2022-09-02T16:37:10.044Z,47.50
2022-09-02T16:39:37.143Z,47.50
2022-09-02T16:42:04.726Z,47.80
2022-09-02T16:44:34.173Z,47.80
2022-09-02T16:47:01.265Z,47.80
2022-09-02T16:49:28.315Z,48.00
2022-09-02T16:51:57.984Z,48.20
2022-09-02T16:54:31.349Z,48.30
2022-09-02T16:57:00.267Z,48.20
2022-09-02T16:59:27.820Z,48.10
2022-09-02T17:01:54.900Z,48.30
2022-09-02T17:04:21.954Z,48.30
2022-09-02T17:06:48.990Z,48.50
2022-09-02T17:09:16.594Z,48.70
2022-09-02T17:11:45.590Z,48.90
2022-09-02T17:14:17.749Z,49.00
2022-09-02T17:16:47.012Z,48.90
2022-09-02T17:19:21.325Z,48.90
2022-09-02T17:21:54.005Z,49.50
2022-09-02T17:24:23.503Z,49.60
2022-09-02T17:26:52.683Z,49.70
2022-09-02T17:29:47.449Z,49.60
2022-09-02T17:32:09.704Z,49.70
2022-09-02T17:34:37.179Z,49.90
2022-09-02T17:37:05.532Z,50.00
2022-09-02T17:39:34.510Z,50.50
2022-09-02T17:42:06.507Z,50.60
2022-09-02T17:44:37.606Z,50.50
2022-09-02T17:47:16.280Z,50.70
2022-09-02T17:49:46.228Z,50.90
2022-09-02T17:52:32.585Z,51.30
2022-09-02T17:54:59.639Z,51.60
2022-09-02T17:57:53.245Z,51.90
2022-09-02T18:00:26.845Z,52.10
2022-09-02T18:03:17.019Z,52.40
2022-09-02T18:05:54.391Z,52.70
2022-09-02T18:08:21.507Z,52.90
2022-09-02T18:10:58.019Z,53.10
2022-09-02T18:13:33.278Z,53.20
2022-09-02T18:16:29.664Z,53.40
2022-09-02T18:19:25.598Z,53.50
2022-09-02T18:22:20.966Z,53.80
2022-09-02T18:24:55.007Z,54.10
2022-09-02T18:27:55.881Z,54.20
2022-09-02T18:30:28.937Z,54.30
2022-09-02T18:33:12.235Z,54.50
2022-09-02T18:35:51.527Z,54.80
2022-09-02T18:38:30.388Z,54.90
2022-09-02T18:41:24.223Z,55.10
2022-09-02T18:44:00.074Z,55.30
2022-09-02T18:46:34.334Z,55.50
2022-09-02T18:49:03.666Z,55.70
2022-09-02T18:51:40.362Z,55.80
2022-09-02T18:54:13.561Z,55.90
2022-09-02T18:56:49.820Z,56.20
2022-09-02T18:59:28.973Z,56.30
2022-09-02T19:02:01.159Z,56.60
2022-09-02T19:04:29.545Z,56.70
2022-09-02T19:07:17.263Z,56.90
2022-09-02T19:09:44.465Z,56.90
2022-09-02T19:12:11.955Z,57.30
2022-09-02T19:14:41.542Z,57.10
2022-09-02T19:17:09.567Z,57.10
2022-09-02T19:19:36.654Z,57.00
2022-09-02T19:22:08.848Z,56.70
2022-09-02T19:24:50.217Z,56.80
2022-09-02T19:27:23.092Z,56.70
2022-09-02T19:29:54.740Z,56.80
2022-09-02T19:32:30.009Z,56.90
2022-09-02T19:34:58.462Z,57.10
2022-09-02T19:37:29.656Z,57.10
2022-09-02T19:40:01.852Z,57.20
2022-09-02T19:42:32.158Z,57.30
2022-09-02T19:45:00.412Z,57.20
2022-09-02T19:50:14.850Z,57.40
2022-09-02T19:52:46.257Z,57.50
2022-09-02T19:55:16.304Z,57.70
2022-09-02T19:57:44.170Z,57.90
2022-09-02T20:00:12.970Z,57.90
2022-09-02T20:02:41.538Z,58.00
2022-09-02T20:05:13.442Z,58.00
2022-09-02T20:07:41.594Z,58.10
2022-09-02T20:10:09.438Z,58.30
2022-09-02T20:12:37.013Z,58.30
2022-09-02T20:15:07.021Z,58.20
2022-09-02T20:17:34.707Z,58.30
2022-09-02T20:20:14.687Z,58.20
2022-09-02T20:22:41.759Z,58.30
2022-09-02T20:25:10.674Z,58.40
2022-09-02T20:27:48.175Z,58.40
2022-09-02T20:30:18.689Z,58.40
2022-09-02T20:32:48.420Z,58.40
2022-09-02T20:35:24.819Z,58.40
2022-09-02T20:38:15.182Z,58.60
2022-09-02T20:41:00.839Z,59.20
2022-09-02T20:43:38.450Z,58.60
2022-09-02T20:46:38.478Z,58.70
2022-09-02T20:49:33.961Z,58.70
2022-09-02T20:52:32.156Z,58.80
2022-09-02T20:55:09.856Z,58.80
2022-09-02T20:58:15.686Z,58.90
2022-09-02T21:01:06.772Z,58.90
2022-09-02T21:03:54.349Z,59.00
2022-09-02T21:06:27.014Z,58.90
2022-09-02T21:09:15.563Z,59.00
2022-09-02T21:11:52.460Z,59.10
2022-09-02T21:14:28.359Z,59.10
2022-09-02T21:17:05.052Z,59.20
2022-09-02T21:19:35.188Z,59.20
2022-09-02T21:22:15.653Z,59.30
2022-09-02T21:24:54.341Z,59.40
2022-09-02T21:27:27.908Z,59.40
2022-09-02T21:30:05.465Z,59.40
2022-09-02T21:32:38.557Z,59.50
2022-09-02T21:35:20.018Z,59.50
2022-09-02T21:37:48.731Z,59.50
2022-09-02T21:40:19.055Z,59.60
2022-09-02T21:43:18.252Z,59.70
2022-09-02T21:46:38.954Z,59.70
2022-09-02T21:49:32.423Z,59.80
2022-09-02T21:52:27.260Z,59.90
2022-09-02T21:55:13.962Z,60.00
2022-09-02T21:58:10.058Z,60.90
2022-09-02T22:00:42.700Z,60.10
2022-09-02T22:03:40.210Z,60.20
2022-09-02T22:06:13.592Z,60.00
2022-09-02T22:08:51.893Z,60.20
2022-09-02T22:11:37.483Z,60.40
2022-09-02T22:14:21.961Z,60.40
2022-09-02T22:17:04.588Z,60.60
2022-09-02T22:19:39.288Z,60.50
2022-09-02T22:22:15.126Z,60.80
2022-09-02T22:24:42.733Z,60.80
2022-09-02T22:27:37.843Z,60.70
2022-09-02T22:30:16.718Z,60.70
2022-09-02T22:33:13.903Z,61.30
2022-09-02T22:35:54.444Z,61.70
2022-09-02T22:38:31.044Z,61.90
2022-09-02T22:41:20.366Z,62.60
2022-09-02T22:44:09.070Z,62.50
2022-09-02T22:47:18.957Z,63.20
2022-09-02T22:50:09.960Z,63.30
2022-09-02T22:52:57.349Z,63.50
2022-09-02T22:55:47.167Z,63.70
2022-09-02T22:58:38.845Z,64.00
2022-09-02T23:01:20.756Z,64.20
2022-09-02T23:04:02.643Z,64.90
2022-09-02T23:06:32.570Z,64.90
2022-09-02T23:09:11.452Z,65.20
2022-09-02T23:11:50.472Z,65.50
2022-09-02T23:14:35.641Z,65.90
2022-09-02T23:17:45.698Z,65.10
2022-09-02T23:20:22.344Z,65.20
2022-09-02T23:22:58.047Z,65.20
2022-09-02T23:25:55.395Z,65.50
2022-09-02T23:29:13.870Z,65.70
2022-09-02T23:31:55.989Z,65.70
2022-09-02T23:34:31.801Z,66.40
2022-09-02T23:37:25.379Z,67.00
2022-09-02T23:40:01.182Z,66.90
2022-09-02T23:42:29.141Z,67.00
2022-09-02T23:45:04.226Z,67.40
2022-09-02T23:48:10.263Z,67.30
2022-09-02T23:50:45.915Z,67.00
2022-09-02T23:53:32.751Z,67.40
2022-09-02T23:56:11.655Z,67.40
2022-09-02T23:58:50.335Z,67.80
